Time;durP1;ratioP1;P1;durP2;ratioP2;P2;SDS_P1;SDS_P2;PMS_P1;PMS_P2;Temp;Humidity;BMP_temperature;BMP_pressure;BME280_temperature;BME280_humidity;BME280_pressure;Samples;Min_cycle;Max_cycle;Signal;HPM_P1;HPM_P2
2023/01/11 00:01:36;;;;;;;4.73;1.70;;;10.10;99.90;;;;;;5011327;28;20199;-80
2023/01/11 00:04:01;;;;;;;8.80;2.07;;;10.10;99.90;;;;;;5014866;28;20226;-82
2023/01/11 00:06:27;;;;;;;2.60;1.73;;;10.20;99.90;;;;;;5014027;28;20235;-79
2023/01/11 00:08:54;;;;;;;3.13;2.00;;;10.20;99.90;;;;;;5007763;28;20620;-79
2023/01/11 00:11:20;;;;;;;2.07;1.73;;;10.20;99.90;;;;;;5010890;28;21038;-80
2023/01/11 00:13:46;;;;;;;2.27;1.73;;;10.20;99.90;;;;;;5012593;28;20436;-80
2023/01/11 00:16:12;;;;;;;3.07;1.60;;;10.20;99.90;;;;;;5012544;28;20205;-80
2023/01/11 00:18:39;;;;;;;2.73;1.80;;;10.20;99.90;;;;;;5018051;28;20185;-81
2023/01/11 00:21:05;;;;;;;4.73;1.73;;;10.20;99.90;;;;;;5012853;28;20443;-81
2023/01/11 00:23:35;;;;;;;6.33;1.80;;;10.30;99.90;;;;;;5015995;28;20886;-82
2023/01/11 00:26:06;;;;;;;3.83;1.90;;;10.30;99.90;;;;;;5017410;28;20477;-82
2023/01/11 00:28:32;;;;;;;2.60;1.60;;;10.40;99.90;;;;;;5022688;28;20450;-81
2023/01/11 00:30:58;;;;;;;4.70;1.97;;;10.40;99.90;;;;;;5016080;28;20529;-80
2023/01/11 00:33:23;;;;;;;3.47;1.70;;;10.40;99.90;;;;;;5008052;28;20304;-80
2023/01/11 00:35:53;;;;;;;5.33;2.10;;;10.40;99.90;;;;;;5014025;28;20459;-80
2023/01/11 00:49:16;;;;;;;3.03;1.60;;;10.40;99.90;;;;;;5012285;28;20438;-81
2023/01/11 00:51:42;;;;;;;5.73;1.73;;;10.50;99.90;;;;;;5013843;28;20459;-83
2023/01/11 00:54:08;;;;;;;2.63;1.83;;;10.50;99.90;;;;;;5009972;28;20574;-81
2023/01/11 00:56:34;;;;;;;4.50;2.00;;;10.50;99.90;;;;;;5020739;28;20212;-81
2023/01/11 00:59:00;;;;;;;2.80;1.80;;;10.50;99.90;;;;;;5015189;28;20616;-82
2023/01/11 01:01:26;;;;;;;3.50;1.77;;;10.50;99.90;;;;;;5018912;28;20542;-81
2023/01/11 01:03:51;;;;;;;2.37;1.60;;;10.50;99.90;;;;;;5013758;28;20804;-81
2023/01/11 01:06:17;;;;;;;3.00;1.90;;;10.50;99.90;;;;;;5021665;28;20285;-81
2023/01/11 01:08:42;;;;;;;5.43;1.70;;;10.50;99.90;;;;;;5015844;28;20189;-81
2023/01/11 01:11:08;;;;;;;2.67;2.07;;;10.60;99.90;;;;;;5012441;28;20205;-81
2023/01/11 01:16:18;;;;;;;3.17;1.67;;;10.50;99.90;;;;;;5013531;28;20215;-81
2023/01/11 01:18:44;;;;;;;2.77;1.50;;;10.50;99.90;;;;;;5013080;28;20447;-81
2023/01/11 01:21:09;;;;;;;3.50;1.70;;;10.50;99.90;;;;;;5014361;28;20188;-81
2023/01/11 01:23:35;;;;;;;2.10;1.47;;;10.50;99.90;;;;;;5019711;28;20185;-84
2023/01/11 01:26:04;;;;;;;2.80;1.70;;;10.50;99.90;;;;;;5018239;28;20258;-83
2023/01/11 01:28:30;;;;;;;2.90;1.60;;;10.50;99.90;;;;;;5013959;28;20267;-81
2023/01/11 01:30:56;;;;;;;5.73;1.70;;;10.50;99.90;;;;;;5016338;28;20489;-82
2023/01/11 01:33:22;;;;;;;2.77;1.70;;;10.60;99.90;;;;;;5012954;28;20193;-83
2023/01/11 01:35:47;;;;;;;2.70;1.90;;;10.60;99.90;;;;;;5018681;28;20200;-82
2023/01/11 01:38:13;;;;;;;2.03;1.40;;;10.60;99.90;;;;;;5014214;28;20524;-82
2023/01/11 01:40:43;;;;;;;2.83;1.40;;;10.60;99.90;;;;;;5014732;28;20268;-83
2023/01/11 01:43:15;;;;;;;1.97;1.27;;;10.70;99.90;;;;;;5010068;28;20280;-83
2023/01/11 01:45:41;;;;;;;3.63;1.77;;;10.70;99.90;;;;;;5013841;28;20852;-83
2023/01/11 01:48:10;;;;;;;4.17;1.57;;;10.70;99.90;;;;;;5016893;28;21027;-82
2023/01/11 01:50:40;;;;;;;2.53;1.20;;;10.70;99.90;;;;;;5014388;28;20474;-84
2023/01/11 01:53:34;;;;;;;4.33;1.60;;;10.70;99.90;;;;;;5017582;28;22020;-81
2023/01/11 01:56:02;;;;;;;2.13;1.20;;;10.60;99.90;;;;;;5011206;28;20549;-81
2023/01/11 01:58:34;;;;;;;2.03;1.20;;;10.60;99.90;;;;;;5014387;28;20445;-82
2023/01/11 02:01:45;;;;;;;2.20;1.50;;;10.70;99.90;;;;;;5015896;28;20478;-82
2023/01/11 02:03:46;;;;;;;4.50;1.57;;;10.70;99.90;;;;;;5018303;28;21285;-82
2023/01/11 02:06:12;;;;;;;3.37;1.67;;;10.70;99.90;;;;;;5011902;28;20558;-81
2023/01/11 02:08:42;;;;;;;2.17;1.50;;;10.70;99.90;;;;;;5013355;28;20519;-82
2023/01/11 02:11:28;;;;;;;2.30;1.60;;;10.60;99.90;;;;;;5020214;28;20210;-82
2023/01/11 02:13:55;;;;;;;1.70;1.30;;;10.60;99.90;;;;;;5023231;28;21007;-82
2023/01/11 02:16:21;;;;;;;1.83;1.10;;;10.70;99.90;;;;;;5016838;28;20501;-82
2023/01/11 02:18:46;;;;;;;1.50;1.10;;;10.60;99.90;;;;;;5021961;28;20447;-81
2023/01/11 02:21:31;;;;;;;3.33;1.33;;;10.60;99.90;;;;;;5015958;28;20204;-81
2023/01/11 02:24:19;;;;;;;2.20;1.57;;;10.60;99.90;;;;;;5026607;28;20199;-81
2023/01/11 02:27:15;;;;;;;3.30;1.43;;;10.50;99.90;;;;;;5015558;28;20467;-81
2023/01/11 02:30:12;;;;;;;1.87;1.23;;;10.50;99.90;;;;;;5023049;28;20490;-81
2023/01/11 02:33:13;;;;;;;2.43;1.60;;;10.50;99.90;;;;;;5020680;28;20450;-81
2023/01/11 02:36:16;;;;;;;2.43;1.37;;;10.60;99.90;;;;;;4998667;28;20456;-81
2023/01/11 02:38:48;;;;;;;2.40;1.30;;;10.50;99.90;;;;;;4963342;28;20480;-78
2023/01/11 02:45:09;;;;;;;2.20;1.50;;;10.50;99.90;;;;;;4997664;28;20462;-81
2023/01/11 02:47:46;;;;;;;1.63;1.20;;;10.40;99.90;;;;;;5014950;28;20539;-81
2023/01/11 02:50:16;;;;;;;2.67;1.40;;;10.40;99.90;;;;;;5019150;28;20474;-81
2023/01/11 02:52:52;;;;;;;3.80;1.60;;;10.30;99.90;;;;;;5012009;28;20790;-82
2023/01/11 02:55:23;;;;;;;3.43;1.37;;;10.30;99.90;;;;;;5017113;28;20444;-80
2023/01/11 02:57:52;;;;;;;2.30;1.20;;;10.30;99.90;;;;;;5018046;28;20415;-82
2023/01/11 03:00:19;;;;;;;6.10;1.47;;;10.30;99.90;;;;;;5018528;28;20647;-82
2023/01/11 03:02:44;;;;;;;2.20;1.60;;;10.30;99.90;;;;;;5016429;28;21024;-79
2023/01/11 03:05:14;;;;;;;2.07;1.40;;;10.30;99.90;;;;;;5017830;28;20777;-79
2023/01/11 03:07:54;;;;;;;1.70;1.40;;;10.20;99.90;;;;;;5017862;28;20216;-78
2023/01/11 03:10:52;;;;;;;2.77;1.20;;;10.30;99.90;;;;;;5015883;28;20566;-79
2023/01/11 03:13:35;;;;;;;1.60;1.20;;;10.30;99.90;;;;;;5019944;28;20442;-78
2023/01/11 03:16:13;;;;;;;2.60;1.23;;;10.20;99.90;;;;;;5014764;28;20550;-79
2023/01/11 03:18:50;;;;;;;2.53;1.30;;;10.20;99.90;;;;;;5017025;28;20451;-78
2023/01/11 03:21:40;;;;;;;2.37;1.20;;;10.20;99.90;;;;;;5014324;28;20418;-78
2023/01/11 03:24:17;;;;;;;1.67;1.20;;;10.30;99.90;;;;;;5015198;28;20519;-81
2023/01/11 03:26:58;;;;;;;2.23;1.40;;;10.40;99.90;;;;;;5017373;28;21045;-81
2023/01/11 03:29:30;;;;;;;2.03;1.30;;;10.40;99.90;;;;;;5012900;28;21503;-81
2023/01/11 03:32:27;;;;;;;2.00;1.40;;;10.40;99.90;;;;;;5013071;28;20471;-81
2023/01/11 03:35:03;;;;;;;2.87;1.40;;;10.50;99.90;;;;;;5015066;28;21103;-81
2023/01/11 03:37:38;;;;;;;3.17;1.80;;;10.50;99.90;;;;;;5015560;28;20458;-81
2023/01/11 03:40:04;;;;;;;2.50;1.57;;;10.50;99.90;;;;;;5014123;28;20447;-81
2023/01/11 03:42:32;;;;;;;1.90;1.30;;;10.50;99.90;;;;;;5019546;28;21063;-81
2023/01/11 03:44:59;;;;;;;3.30;1.50;;;10.50;99.90;;;;;;5015638;28;20199;-81
2023/01/11 03:47:27;;;;;;;2.03;1.30;;;10.50;99.90;;;;;;5015983;28;20485;-80
2023/01/11 03:50:09;;;;;;;2.73;1.40;;;10.50;99.90;;;;;;5017865;28;20505;-80
2023/01/11 03:52:41;;;;;;;2.23;1.37;;;10.50;99.90;;;;;;5015144;28;20482;-81
2023/01/11 03:55:08;;;;;;;4.80;1.40;;;10.50;99.90;;;;;;5031698;28;20953;-81
2023/01/11 03:57:39;;;;;;;5.93;1.53;;;10.60;99.90;;;;;;5009432;28;20806;-81
2023/01/11 04:00:06;;;;;;;2.63;1.50;;;10.60;99.90;;;;;;5014134;28;20928;-81
2023/01/11 04:02:40;;;;;;;3.80;1.70;;;10.70;99.90;;;;;;5013249;28;20455;-81
2023/01/11 04:05:08;;;;;;;2.87;1.17;;;10.80;99.90;;;;;;5016508;28;20454;-81
2023/01/11 04:07:33;;;;;;;1.53;1.00;;;10.80;99.90;;;;;;5013162;28;20502;-81
2023/01/11 04:09:59;;;;;;;3.30;1.40;;;10.80;99.90;;;;;;5014588;28;20506;-82
2023/01/11 04:12:25;;;;;;;2.60;1.40;;;10.80;99.90;;;;;;5009681;28;20184;-82
2023/01/11 04:14:51;;;;;;;2.07;1.33;;;10.80;99.90;;;;;;5013065;28;20189;-82
2023/01/11 04:17:16;;;;;;;2.00;1.50;;;10.90;99.90;;;;;;5014482;28;20840;-82
2023/01/11 04:19:42;;;;;;;2.30;1.20;;;10.90;99.90;;;;;;5012149;28;20260;-81
2023/01/11 04:22:08;;;;;;;2.00;1.30;;;10.90;99.90;;;;;;5014374;28;20315;-81
2023/01/11 04:24:33;;;;;;;6.40;1.80;;;11.00;99.90;;;;;;5013821;28;20193;-82
2023/01/11 04:26:59;;;;;;;3.27;1.33;;;11.00;99.90;;;;;;5008732;28;20204;-81
2023/01/11 04:29:25;;;;;;;2.73;1.40;;;11.10;99.90;;;;;;5010855;28;20272;-81
2023/01/11 04:31:50;;;;;;;3.50;3.17;;;11.10;99.90;;;;;;5014660;28;20390;-79
2023/01/11 04:34:16;;;;;;;2.77;1.60;;;11.20;99.90;;;;;;5013279;28;20181;-81
2023/01/11 04:36:41;;;;;;;3.47;1.30;;;11.20;99.90;;;;;;5015337;28;20212;-80
2023/01/11 04:39:09;;;;;;;1.93;1.40;;;11.20;99.90;;;;;;5014404;28;20176;-79
2023/01/11 04:44:20;;;;;;;4.27;2.70;;;11.30;99.90;;;;;;5012468;28;20524;-80
2023/01/11 04:46:45;;;;;;;3.40;1.50;;;11.30;99.90;;;;;;5010583;28;20483;-80
2023/01/11 04:49:11;;;;;;;5.33;1.57;;;11.30;99.90;;;;;;5013438;28;20538;-80
2023/01/11 04:51:37;;;;;;;1.93;1.13;;;11.30;99.90;;;;;;5014393;28;20223;-80
2023/01/11 04:54:02;;;;;;;1.60;1.17;;;11.30;99.90;;;;;;5014435;28;20180;-80
2023/01/11 04:56:28;;;;;;;2.27;1.20;;;11.40;99.90;;;;;;5015941;28;20192;-79
2023/01/11 04:58:54;;;;;;;1.80;1.10;;;11.30;99.90;;;;;;5020424;28;20188;-79
2023/01/11 05:01:19;;;;;;;1.63;1.00;;;11.20;99.90;;;;;;5013172;28;20664;-79
2023/01/11 05:03:45;;;;;;;2.63;1.07;;;11.30;99.90;;;;;;5015755;28;20185;-79
2023/01/11 05:06:12;;;;;;;1.87;1.23;;;11.40;99.90;;;;;;5018506;28;20704;-79
2023/01/11 05:08:38;;;;;;;2.53;1.10;;;11.30;99.90;;;;;;5019500;28;20524;-79
2023/01/11 05:11:06;;;;;;;1.50;1.10;;;11.40;99.90;;;;;;5014088;28;20527;-80
2023/01/11 05:13:41;;;;;;;2.30;1.20;;;11.40;99.90;;;;;;5018053;28;20435;-79
2023/01/11 05:16:06;;;;;;;2.57;1.30;;;11.50;99.90;;;;;;5016997;28;20458;-79
2023/01/11 05:18:32;;;;;;;1.93;1.30;;;11.40;99.90;;;;;;5018021;28;20435;-78
2023/01/11 05:20:58;;;;;;;2.77;1.37;;;11.40;99.90;;;;;;5013150;28;20193;-78
2023/01/11 05:23:23;;;;;;;1.90;1.20;;;11.40;99.90;;;;;;5015918;28;20233;-77
2023/01/11 05:25:49;;;;;;;3.00;1.10;;;11.40;99.90;;;;;;5019708;28;20212;-77
2023/01/11 05:28:14;;;;;;;1.63;1.10;;;11.50;99.90;;;;;;5017389;28;20600;-79
2023/01/11 05:30:40;;;;;;;1.60;1.10;;;11.50;99.90;;;;;;5017929;28;20204;-83
2023/01/11 05:33:05;;;;;;;2.30;1.30;;;11.50;99.90;;;;;;5013763;28;20236;-82
2023/01/11 05:35:31;;;;;;;1.50;1.00;;;11.50;99.90;;;;;;5022033;28;20185;-82
2023/01/11 05:37:56;;;;;;;1.60;1.20;;;11.50;99.90;;;;;;5018509;28;20242;-82
2023/01/11 05:40:22;;;;;;;1.80;1.30;;;11.50;99.90;;;;;;5022459;28;20254;-81
2023/01/11 05:42:47;;;;;;;1.67;1.20;;;11.50;99.90;;;;;;5016274;28;20185;-82
2023/01/11 05:45:28;;;;;;;1.70;1.00;;;11.40;99.90;;;;;;5018224;28;20191;-82
2023/01/11 05:47:54;;;;;;;1.57;1.10;;;11.40;99.90;;;;;;5020162;28;20273;-79
2023/01/11 05:50:20;;;;;;;2.00;1.40;;;11.50;99.90;;;;;;5019129;28;20473;-79
2023/01/11 05:52:45;;;;;;;2.37;1.20;;;11.50;99.90;;;;;;5016798;28;20435;-79
2023/01/11 05:55:11;;;;;;;1.80;1.20;;;11.60;99.90;;;;;;5010107;28;20200;-79
2023/01/11 05:57:40;;;;;;;1.53;1.03;;;11.60;99.90;;;;;;5016443;28;20258;-80
2023/01/11 06:00:07;;;;;;;2.10;1.30;;;11.60;99.90;;;;;;5012707;28;20192;-80
2023/01/11 06:02:34;;;;;;;2.47;1.10;;;11.60;99.90;;;;;;5017983;28;20462;-81
2023/01/11 06:04:59;;;;;;;1.60;1.03;;;11.60;99.90;;;;;;5013849;28;20528;-80
2023/01/11 06:07:25;;;;;;;2.60;1.00;;;11.50;99.90;;;;;;5018413;28;20879;-80
2023/01/11 06:09:50;;;;;;;1.90;1.10;;;11.50;99.90;;;;;;5016836;28;20215;-81
2023/01/11 06:12:16;;;;;;;1.67;1.00;;;11.50;99.90;;;;;;5016421;28;20188;-78
2023/01/11 06:14:42;;;;;;;4.20;1.20;;;11.50;99.90;;;;;;5019657;28;20744;-82
2023/01/11 06:17:07;;;;;;;2.90;1.30;;;11.50;99.90;;;;;;5013693;28;20722;-81
2023/01/11 06:19:33;;;;;;;1.70;1.20;;;11.50;99.90;;;;;;5011634;28;20894;-82
2023/01/11 06:21:59;;;;;;;2.40;1.00;;;11.60;99.90;;;;;;5018846;28;20188;-80
2023/01/11 06:24:24;;;;;;;3.90;1.10;;;11.60;99.90;;;;;;5015809;28;20180;-79
2023/01/11 06:26:53;;;;;;;1.60;1.00;;;11.60;99.90;;;;;;5011455;28;20262;-79
2023/01/11 06:29:19;;;;;;;2.43;1.10;;;11.60;99.90;;;;;;5019442;28;20268;-79
2023/01/11 06:31:45;;;;;;;1.40;1.00;;;11.60;99.90;;;;;;5017067;28;21188;-78
2023/01/11 06:34:10;;;;;;;1.77;1.20;;;11.60;99.90;;;;;;5016730;28;20192;-78
2023/01/11 06:36:37;;;;;;;1.73;1.13;;;11.50;99.90;;;;;;5016488;28;20200;-78
2023/01/11 06:39:04;;;;;;;1.77;1.10;;;11.60;99.90;;;;;;5019549;28;20181;-77
2023/01/11 06:41:30;;;;;;;2.40;1.13;;;11.50;99.90;;;;;;5016591;28;21205;-77
2023/01/11 06:43:56;;;;;;;2.00;1.10;;;11.50;99.90;;;;;;5016364;28;20444;-78
2023/01/11 06:46:24;;;;;;;1.80;1.10;;;11.50;99.90;;;;;;5011449;28;20385;-78
2023/01/11 06:48:50;;;;;;;1.67;1.00;;;11.60;99.90;;;;;;5013588;28;20243;-78
2023/01/11 06:51:16;;;;;;;1.80;1.20;;;11.60;99.90;;;;;;5011916;28;20517;-78
2023/01/11 06:53:43;;;;;;;2.97;1.50;;;11.60;99.90;;;;;;5016676;28;20184;-77
2023/01/11 06:56:17;;;;;;;5.77;1.20;;;11.70;99.90;;;;;;5014840;28;20242;-78
2023/01/11 06:58:43;;;;;;;2.20;1.20;;;11.70;99.90;;;;;;5017763;28;20411;-78
2023/01/11 07:01:09;;;;;;;2.37;1.20;;;11.70;99.90;;;;;;5014057;28;20423;-80
2023/01/11 07:03:35;;;;;;;2.07;1.20;;;11.80;99.90;;;;;;5017597;28;20500;-80
2023/01/11 07:06:01;;;;;;;1.83;1.10;;;11.70;99.90;;;;;;5018654;28;20211;-80
2023/01/11 07:08:27;;;;;;;2.30;1.30;;;11.70;99.90;;;;;;5012960;28;20312;-79
2023/01/11 07:10:53;;;;;;;1.80;1.20;;;11.80;99.90;;;;;;5017018;28;20975;-80
2023/01/11 07:13:20;;;;;;;1.93;1.10;;;11.70;99.90;;;;;;5014773;28;20280;-81
2023/01/11 07:15:48;;;;;;;1.37;0.90;;;11.70;99.90;;;;;;5015677;28;20518;-83
2023/01/11 07:18:14;;;;;;;1.87;1.13;;;11.80;99.90;;;;;;5011170;28;20435;-79
2023/01/11 07:20:40;;;;;;;1.60;1.10;;;11.80;99.90;;;;;;5008494;28;20505;-80
2023/01/11 07:23:06;;;;;;;3.00;1.13;;;11.80;99.90;;;;;;5011085;28;20443;-79
2023/01/11 07:25:32;;;;;;;2.17;1.00;;;11.90;99.90;;;;;;5013697;28;20227;-78
2023/01/11 07:28:03;;;;;;;1.77;1.13;;;11.90;99.90;;;;;;5009252;28;20439;-80
2023/01/11 07:30:30;;;;;;;2.27;1.20;;;11.90;99.90;;;;;;5013891;28;20205;-78
2023/01/11 07:33:00;;;;;;;1.40;0.90;;;11.90;99.90;;;;;;5014562;28;20443;-77
2023/01/11 07:35:28;;;;;;;1.40;1.00;;;12.00;99.90;;;;;;5013326;28;20438;-78
2023/01/11 07:37:54;;;;;;;1.60;1.10;;;12.00;99.90;;;;;;5011096;28;20819;-80
2023/01/11 07:40:19;;;;;;;2.03;1.10;;;12.10;99.90;;;;;;5011694;28;20443;-80
2023/01/11 07:45:36;;;;;;;1.93;1.23;;;12.10;99.90;;;;;;5011079;28;20284;-77
2023/01/11 07:48:05;;;;;;;1.50;1.10;;;12.10;99.90;;;;;;5010484;28;20471;-77
2023/01/11 07:50:31;;;;;;;1.70;1.20;;;12.20;99.90;;;;;;5014478;28;20482;-77
2023/01/11 07:52:57;;;;;;;1.60;1.00;;;12.20;99.90;;;;;;5010014;28;20427;-78
2023/01/11 07:55:23;;;;;;;1.70;1.10;;;12.20;99.90;;;;;;5010534;28;20493;-78
2023/01/11 07:57:49;;;;;;;1.53;1.10;;;12.20;99.90;;;;;;5013059;28;20428;-79
2023/01/11 08:00:15;;;;;;;1.80;1.07;;;12.20;99.90;;;;;;5013501;28;21570;-79
2023/01/11 08:02:41;;;;;;;1.87;1.23;;;12.30;99.90;;;;;;5015703;28;20192;-77
2023/01/11 08:05:07;;;;;;;2.43;1.23;;;12.40;99.90;;;;;;5014887;28;20467;-77
2023/01/11 08:07:33;;;;;;;2.00;1.27;;;12.30;99.90;;;;;;5014526;28;20997;-78
2023/01/11 08:09:59;;;;;;;1.73;1.20;;;12.30;99.90;;;;;;5008833;28;20974;-76
2023/01/11 08:15:11;;;;;;;2.03;1.20;;;12.30;99.90;;;;;;5011273;28;20191;-76
2023/01/11 08:17:37;;;;;;;1.50;1.10;;;12.40;99.90;;;;;;5015460;28;20458;-75
2023/01/11 08:20:03;;;;;;;2.17;1.20;;;12.40;99.90;;;;;;5008980;28;20484;-76
2023/01/11 08:22:29;;;;;;;2.30;1.40;;;12.30;99.90;;;;;;5012105;28;20529;-76
2023/01/11 08:24:54;;;;;;;1.60;1.10;;;12.40;99.90;;;;;;5012468;28;20546;-77
2023/01/11 08:27:20;;;;;;;5.23;1.40;;;12.40;99.90;;;;;;5014031;28;20204;-76
2023/01/11 08:29:45;;;;;;;1.60;1.20;;;12.40;99.90;;;;;;5011440;28;20200;-76
2023/01/11 08:32:12;;;;;;;1.70;1.27;;;12.40;99.90;;;;;;5010461;28;20220;-75
2023/01/11 08:34:38;;;;;;;1.80;1.20;;;12.40;99.90;;;;;;5017914;28;20279;-75
2023/01/11 08:37:04;;;;;;;2.07;1.20;;;12.30;99.90;;;;;;5017188;28;20562;-77
2023/01/11 08:39:29;;;;;;;3.03;1.40;;;12.30;99.90;;;;;;5018092;28;20226;-78
2023/01/11 08:41:59;;;;;;;1.50;1.10;;;12.40;99.90;;;;;;5018449;28;20439;-83
2023/01/11 08:44:24;;;;;;;1.70;1.20;;;12.40;99.90;;;;;;5019300;28;20270;-84
2023/01/11 08:46:50;;;;;;;2.03;1.37;;;12.40;99.90;;;;;;5020535;28;20561;-78
2023/01/11 08:49:16;;;;;;;1.80;1.40;;;12.40;99.90;;;;;;5016117;28;20211;-79
2023/01/11 08:51:41;;;;;;;2.53;1.30;;;12.40;99.90;;;;;;5015889;28;20483;-79
2023/01/11 08:54:11;;;;;;;1.80;1.20;;;12.40;99.90;;;;;;5012781;28;20184;-80
2023/01/11 08:56:37;;;;;;;2.30;1.33;;;12.40;99.90;;;;;;5012875;28;20213;-79
2023/01/11 08:59:03;;;;;;;1.60;1.07;;;12.30;99.90;;;;;;5015806;28;20895;-79
2023/01/11 09:01:29;;;;;;;1.80;1.20;;;12.30;99.90;;;;;;5017003;28;20225;-75
2023/01/11 09:03:55;;;;;;;1.50;1.03;;;12.20;99.90;;;;;;5016095;28;20956;-79
2023/01/11 09:06:21;;;;;;;1.60;1.17;;;12.20;99.90;;;;;;5015968;28;20220;-77
2023/01/11 09:08:47;;;;;;;1.77;1.30;;;12.10;99.90;;;;;;5015682;28;20184;-77
2023/01/11 09:13:57;;;;;;;1.80;1.40;;;12.00;99.90;;;;;;5020592;28;20336;-77
2023/01/11 09:16:22;;;;;;;3.00;1.47;;;11.90;99.90;;;;;;5013135;28;20489;-79
2023/01/11 09:18:48;;;;;;;2.87;1.30;;;11.80;99.90;;;;;;5017489;28;20192;-75
2023/01/11 09:21:13;;;;;;;1.60;1.10;;;11.70;99.90;;;;;;5014863;28;20207;-76
2023/01/11 09:23:39;;;;;;;2.60;1.47;;;11.70;99.90;;;;;;5018757;28;20211;-76
2023/01/11 09:26:05;;;;;;;3.90;1.20;;;11.70;99.90;;;;;;5017319;28;20212;-76
2023/01/11 09:28:31;;;;;;;1.80;1.10;;;11.60;99.90;;;;;;5019851;28;20950;-76
2023/01/11 09:30:56;;;;;;;2.90;1.10;;;11.60;99.90;;;;;;5018017;28;20468;-76
2023/01/11 09:33:22;;;;;;;1.50;1.10;;;11.50;99.90;;;;;;5016256;28;20189;-76
2023/01/11 09:35:50;;;;;;;1.53;1.10;;;11.50;99.90;;;;;;5018904;28;20295;-73
2023/01/11 09:38:16;;;;;;;3.60;1.10;;;11.40;99.90;;;;;;5013175;28;20192;-72
2023/01/11 09:40:45;;;;;;;1.50;1.10;;;11.30;99.90;;;;;;5017061;28;20438;-71
2023/01/11 09:43:16;;;;;;;2.03;1.30;;;11.30;99.90;;;;;;5013244;28;20196;-71
2023/01/11 09:45:45;;;;;;;2.07;1.37;;;11.20;99.90;;;;;;5016323;28;20454;-71
2023/01/11 09:48:35;;;;;;;1.67;1.10;;;11.30;99.90;;;;;;5016723;28;20673;-71
2023/01/11 09:51:01;;;;;;;3.97;1.30;;;11.30;99.90;;;;;;5014915;28;21000;-72
2023/01/11 09:53:33;;;;;;;1.80;1.37;;;11.30;99.90;;;;;;5016214;28;20450;-71
2023/01/11 09:56:02;;;;;;;2.50;1.50;;;11.30;99.90;;;;;;5014467;28;20549;-71
2023/01/11 09:59:06;;;;;;;2.00;1.40;;;11.30;99.90;;;;;;5009647;28;20469;-74
2023/01/11 10:02:06;;;;;;;2.50;1.30;;;11.40;99.90;;;;;;5010485;28;20530;-71
2023/01/11 10:05:01;;;;;;;1.50;1.10;;;11.40;99.90;;;;;;5016977;28;20526;-70
2023/01/11 10:07:58;;;;;;;1.90;1.20;;;11.40;99.90;;;;;;5016998;28;20462;-71
2023/01/11 10:10:56;;;;;;;2.83;1.00;;;11.50;99.90;;;;;;5015734;28;20517;-70
2023/01/11 10:13:44;;;;;;;4.73;1.40;;;11.50;99.90;;;;;;5015446;28;20518;-70
2023/01/11 10:16:23;;;;;;;1.57;1.03;;;11.50;99.90;;;;;;5020282;28;20457;-72
2023/01/11 10:19:12;;;;;;;1.70;1.20;;;11.40;99.90;;;;;;5013268;28;20534;-70
2023/01/11 10:21:52;;;;;;;1.63;1.17;;;11.40;99.90;;;;;;5009475;28;20444;-74
2023/01/11 10:24:28;;;;;;;1.63;1.20;;;11.50;99.90;;;;;;5014324;28;21399;-72
2023/01/11 10:27:00;;;;;;;2.10;1.37;;;11.50;99.90;;;;;;5013012;28;20476;-74
2023/01/11 10:41:32;;;;;;;2.70;1.50;;;11.60;99.90;;;;;;5011234;28;20452;-75
2023/01/11 10:44:27;;;;;;;3.50;1.70;;;11.70;99.90;;;;;;5009600;28;20530;-78
2023/01/11 10:46:54;;;;;;;1.70;1.30;;;11.70;99.90;;;;;;5018699;28;20461;-79
2023/01/11 10:49:49;;;;;;;2.60;1.50;;;11.60;99.90;;;;;;5011497;28;20431;-76
2023/01/11 10:52:24;;;;;;;2.40;1.50;;;11.60;99.90;;;;;;5014347;28;20879;-76
2023/01/11 10:54:53;;;;;;;2.40;1.30;;;11.60;99.90;;;;;;5017220;28;20501;-81
2023/01/11 10:57:40;;;;;;;1.87;1.50;;;11.70;99.90;;;;;;5013160;28;20554;-83
2023/01/11 11:00:31;;;;;;;2.43;1.50;;;11.70;99.90;;;;;;5013318;28;20461;-84
2023/01/11 11:03:05;;;;;;;2.53;1.70;;;11.80;99.90;;;;;;5017316;28;20443;-82
2023/01/11 11:05:59;;;;;;;2.20;1.50;;;11.90;99.90;;;;;;5024846;28;20486;-82
2023/01/11 11:08:31;;;;;;;4.13;1.50;;;11.90;99.90;;;;;;5018602;28;20507;-84
2023/01/11 11:11:09;;;;;;;1.67;1.40;;;11.80;99.90;;;;;;5022168;28;20527;-78
2023/01/11 11:13:44;;;;;;;2.60;1.60;;;11.80;99.90;;;;;;5014756;28;20509;-77
2023/01/11 11:16:52;;;;;;;2.23;1.40;;;11.90;99.90;;;;;;5015578;28;21879;-77
2023/01/11 11:19:24;;;;;;;2.80;1.40;;;11.90;99.90;;;;;;5010651;28;20435;-77
2023/01/11 11:21:51;;;;;;;3.57;1.53;;;11.80;99.90;;;;;;5015739;28;20427;-76
2023/01/11 11:24:23;;;;;;;4.67;1.70;;;11.90;99.90;;;;;;5019548;28;20423;-77
2023/01/11 11:26:55;;;;;;;2.53;1.83;;;11.90;99.90;;;;;;5019089;28;20454;-76
2023/01/11 11:29:28;;;;;;;3.57;1.50;;;11.90;99.90;;;;;;5011021;28;20815;-77
2023/01/11 11:31:54;;;;;;;1.80;1.57;;;11.90;99.90;;;;;;5016668;28;20818;-76
2023/01/11 11:34:21;;;;;;;2.60;1.60;;;11.90;99.90;;;;;;5016369;28;20417;-76
2023/01/11 11:36:49;;;;;;;1.60;1.23;;;11.80;99.90;;;;;;5018649;28;20467;-76
2023/01/11 11:39:20;;;;;;;5.10;2.07;;;11.90;99.90;;;;;;5016600;28;20427;-76
2023/01/11 11:41:55;;;;;;;3.00;1.50;;;12.00;99.90;;;;;;5021843;28;20812;-76
2023/01/11 11:44:23;;;;;;;3.37;1.70;;;11.90;99.90;;;;;;5011933;28;20430;-76
2023/01/11 11:47:04;;;;;;;2.00;1.60;;;11.90;99.90;;;;;;5012345;28;20472;-76
2023/01/11 11:49:32;;;;;;;2.90;2.20;;;11.90;99.90;;;;;;5018370;28;20438;-76
2023/01/11 11:51:59;;;;;;;4.17;2.10;;;11.90;99.90;;;;;;5015658;28;20528;-76
2023/01/11 11:54:35;;;;;;;4.20;1.67;;;11.90;99.90;;;;;;5018618;28;20855;-76
2023/01/11 11:57:24;;;;;;;5.30;1.83;;;11.90;99.90;;;;;;5014573;28;20555;-76
2023/01/11 12:00:05;;;;;;;2.13;1.50;;;11.80;99.90;;;;;;5016224;28;20450;-76
2023/01/11 12:02:33;;;;;;;2.00;1.60;;;11.80;99.90;;;;;;5010172;28;20491;-76
2023/01/11 12:05:04;;;;;;;2.57;1.60;;;11.80;99.90;;;;;;5019860;28;20427;-76
2023/01/11 12:07:36;;;;;;;2.37;1.67;;;11.80;99.90;;;;;;5009920;28;20577;-76
2023/01/11 12:10:09;;;;;;;3.80;1.50;;;11.80;99.90;;;;;;5013434;28;20859;-76
2023/01/11 12:12:54;;;;;;;3.30;1.70;;;11.90;99.90;;;;;;5008894;28;20435;-75
2023/01/11 12:15:31;;;;;;;2.93;1.70;;;11.90;99.90;;;;;;5012840;28;20446;-77
2023/01/11 12:18:15;;;;;;;3.73;2.00;;;11.80;99.90;;;;;;5015435;28;20442;-76
2023/01/11 12:20:43;;;;;;;5.93;2.10;;;11.80;99.90;;;;;;5016527;28;20431;-76
2023/01/11 12:23:20;;;;;;;2.43;1.87;;;11.80;99.90;;;;;;5016635;28;20416;-76
2023/01/11 12:26:08;;;;;;;2.77;1.80;;;11.90;99.90;;;;;;5015043;28;20446;-76
2023/01/11 12:29:15;;;;;;;2.43;1.77;;;11.90;99.90;;;;;;5012455;28;20438;-79
2023/01/11 12:32:02;;;;;;;2.50;2.10;;;11.90;99.90;;;;;;5010224;28;20499;-76
2023/01/11 12:34:36;;;;;;;2.20;1.43;;;11.80;99.90;;;;;;5013019;28;20555;-76
2023/01/11 12:37:23;;;;;;;3.27;1.60;;;11.80;99.90;;;;;;5010465;28;20455;-78
2023/01/11 12:40:18;;;;;;;2.50;2.00;;;11.80;99.90;;;;;;5015366;28;20473;-78
2023/01/11 12:42:59;;;;;;;2.43;1.70;;;11.80;99.90;;;;;;5011310;28;20423;-75
2023/01/11 12:46:01;;;;;;;3.40;2.13;;;11.80;99.90;;;;;;5008173;28;20445;-77
2023/01/11 12:48:44;;;;;;;2.47;1.83;;;11.80;99.90;;;;;;4985377;28;20451;-74
2023/01/11 12:51:19;;;;;;;1.97;1.60;;;11.70;99.90;;;;;;5011211;28;20498;-82
2023/01/11 12:53:54;;;;;;;2.40;1.80;;;11.80;99.90;;;;;;5010852;28;20824;-77
2023/01/11 12:56:30;;;;;;;2.90;1.83;;;11.70;99.90;;;;;;5010236;28;20458;-77
2023/01/11 12:59:32;;;;;;;1.80;1.37;;;11.80;99.90;;;;;;5010353;28;20530;-77
2023/01/11 13:02:03;;;;;;;2.63;2.00;;;11.80;99.90;;;;;;5011586;28;20540;-78
2023/01/11 13:04:53;;;;;;;3.07;1.80;;;11.80;99.90;;;;;;5013655;28;20443;-77
2023/01/11 13:07:23;;;;;;;2.60;1.93;;;11.80;99.90;;;;;;5012523;28;20573;-77
2023/01/11 13:09:57;;;;;;;2.20;1.60;;;11.70;99.90;;;;;;5016417;28;20450;-77
2023/01/11 13:12:36;;;;;;;2.33;1.90;;;11.80;99.90;;;;;;5012503;28;20575;-76
2023/01/11 13:15:08;;;;;;;3.20;2.00;;;11.80;99.90;;;;;;5011220;28;20527;-77
2023/01/11 13:17:54;;;;;;;4.87;2.27;;;11.80;99.90;;;;;;5015770;28;20470;-77
2023/01/11 13:20:44;;;;;;;2.87;1.90;;;11.70;99.90;;;;;;5013117;28;20505;-76
2023/01/11 13:23:22;;;;;;;2.33;1.83;;;11.70;99.90;;;;;;5019816;28;20418;-76
2023/01/11 13:25:50;;;;;;;3.70;2.27;;;11.60;99.90;;;;;;5021028;28;20458;-77
2023/01/11 13:28:28;;;;;;;1.90;1.47;;;11.60;99.90;;;;;;5019007;28;20462;-77
2023/01/11 13:30:55;;;;;;;2.60;1.93;;;11.70;99.90;;;;;;5017117;28;20552;-76
2023/01/11 13:33:23;;;;;;;2.80;1.93;;;11.60;99.90;;;;;;5013809;28;20437;-76
2023/01/11 13:35:56;;;;;;;2.10;1.80;;;11.60;99.90;;;;;;5020490;28;20593;-77
2023/01/11 13:38:38;;;;;;;2.63;1.80;;;11.70;99.90;;;;;;5011345;28;20446;-78
2023/01/11 13:41:16;;;;;;;4.63;1.70;;;11.70;99.90;;;;;;5019527;28;20824;-77
2023/01/11 13:43:58;;;;;;;2.30;1.63;;;11.70;99.90;;;;;;5018854;28;20426;-76
2023/01/11 13:46:30;;;;;;;2.73;1.83;;;11.70;99.90;;;;;;5016136;28;20462;-78
2023/01/11 13:49:05;;;;;;;3.10;1.90;;;11.70;99.90;;;;;;5017404;28;20475;-77
2023/01/11 13:51:37;;;;;;;3.03;1.80;;;11.70;99.90;;;;;;5015095;28;20470;-77